sensor_id;sensor_type;location;lat;lon;timestamp;P1;durP1;ratioP1;P2;durP2;ratioP2
32912;SDS011;19266;45.580;-122.680;2022-07-15T00:00:22;4.45;;;2.70;;
32912;SDS011;19266;45.580;-122.680;2022-07-15T00:02:53;4.92;;;2.90;;
32912;SDS011;19266;45.580;-122.680;2022-07-15T00:05:24;4.05;;;2.85;;
32912;SDS011;19266;45.580;-122.680;2022-07-15T00:07:54;5.65;;;2.58;;
32912;SDS011;19266;45.580;-122.680;2022-07-15T00:10:25;3.45;;;2.72;;
32912;SDS011;19266;45.580;-122.680;2022-07-15T00:13:01;6.35;;;2.98;;
32912;SDS011;19266;45.580;-122.680;2022-07-15T00:15:27;3.27;;;2.80;;
32912;SDS011;19266;45.580;-122.680;2022-07-15T00:17:57;3.90;;;2.72;;
32912;SDS011;19266;45.580;-122.680;2022-07-15T00:20:28;4.08;;;2.90;;
32912;SDS011;19266;45.580;-122.680;2022-07-15T00:23:03;9.58;;;3.35;;
32912;SDS011;19266;45.580;-122.680;2022-07-15T00:25:32;4.53;;;3.00;;
32912;SDS011;19266;45.580;-122.680;2022-07-15T00:28:02;5.80;;;2.85;;
32912;SDS011;19266;45.580;-122.680;2022-07-15T00:30:34;4.58;;;2.95;;
32912;SDS011;19266;45.580;-122.680;2022-07-15T00:33:04;4.20;;;2.58;;
32912;SDS011;19266;45.580;-122.680;2022-07-15T00:35:34;4.47;;;2.80;;
32912;SDS011;19266;45.580;-122.680;2022-07-15T00:38:03;2.77;;;2.47;;
32912;SDS011;19266;45.580;-122.680;2022-07-15T00:40:38;10.68;;;3.10;;
32912;SDS011;19266;45.580;-122.680;2022-07-15T00:43:03;3.90;;;2.70;;
32912;SDS011;19266;45.580;-122.680;2022-07-15T00:45:32;4.97;;;2.80;;
32912;SDS011;19266;45.580;-122.680;2022-07-15T00:48:01;3.00;;;2.70;;
32912;SDS011;19266;45.580;-122.680;2022-07-15T00:50:32;3.95;;;2.75;;
32912;SDS011;19266;45.580;-122.680;2022-07-15T00:53:09;4.42;;;2.90;;
32912;SDS011;19266;45.580;-122.680;2022-07-15T00:55:32;6.35;;;2.45;;
32912;SDS011;19266;45.580;-122.680;2022-07-15T00:58:02;4.05;;;2.37;;
32912;SDS011;19266;45.580;-122.680;2022-07-15T01:00:32;3.52;;;2.20;;
32912;SDS011;19266;45.580;-122.680;2022-07-15T01:03:01;12.45;;;2.85;;
32912;SDS011;19266;45.580;-122.680;2022-07-15T01:05:31;3.27;;;2.15;;
32912;SDS011;19266;45.580;-122.680;2022-07-15T01:08:01;2.90;;;2.30;;
32912;SDS011;19266;45.580;-122.680;2022-07-15T01:10:31;3.60;;;2.25;;
32912;SDS011;19266;45.580;-122.680;2022-07-15T01:13:02;57.93;;;3.98;;
32912;SDS011;19266;45.580;-122.680;2022-07-15T01:15:32;4.30;;;2.42;;
32912;SDS011;19266;45.580;-122.680;2022-07-15T01:18:01;3.02;;;2.10;;
32912;SDS011;19266;45.580;-122.680;2022-07-15T01:20:31;2.72;;;2.17;;
32912;SDS011;19266;45.580;-122.680;2022-07-15T01:23:00;2.92;;;2.30;;
32912;SDS011;19266;45.580;-122.680;2022-07-15T01:25:30;7.58;;;2.30;;
32912;SDS011;19266;45.580;-122.680;2022-07-15T01:27:59;3.25;;;2.40;;
32912;SDS011;19266;45.580;-122.680;2022-07-15T01:30:28;4.92;;;2.40;;
32912;SDS011;19266;45.580;-122.680;2022-07-15T01:32:57;3.25;;;2.37;;
32912;SDS011;19266;45.580;-122.680;2022-07-15T01:35:27;4.28;;;2.35;;
32912;SDS011;19266;45.580;-122.680;2022-07-15T01:37:58;2.75;;;2.40;;
32912;SDS011;19266;45.580;-122.680;2022-07-15T01:40:30;2.58;;;2.37;;
32912;SDS011;19266;45.580;-122.680;2022-07-15T01:42:59;3.60;;;2.33;;
32912;SDS011;19266;45.580;-122.680;2022-07-15T01:45:28;3.52;;;2.37;;
32912;SDS011;19266;45.580;-122.680;2022-07-15T01:47:57;3.87;;;2.02;;
32912;SDS011;19266;45.580;-122.680;2022-07-15T01:50:26;3.12;;;2.20;;
32912;SDS011;19266;45.580;-122.680;2022-07-15T01:52:57;3.17;;;2.05;;
32912;SDS011;19266;45.580;-122.680;2022-07-15T01:55:26;3.05;;;2.20;;
32912;SDS011;19266;45.580;-122.680;2022-07-15T01:57:55;8.50;;;2.62;;
32912;SDS011;19266;45.580;-122.680;2022-07-15T02:00:24;3.37;;;2.27;;
32912;SDS011;19266;45.580;-122.680;2022-07-15T02:02:53;3.55;;;2.12;;
32912;SDS011;19266;45.580;-122.680;2022-07-15T02:05:23;3.17;;;2.30;;
32912;SDS011;19266;45.580;-122.680;2022-07-15T02:07:52;3.55;;;2.30;;
32912;SDS011;19266;45.580;-122.680;2022-07-15T02:10:21;2.92;;;2.40;;
32912;SDS011;19266;45.580;-122.680;2022-07-15T02:12:50;2.83;;;2.40;;
32912;SDS011;19266;45.580;-122.680;2022-07-15T02:15:19;4.37;;;2.27;;
32912;SDS011;19266;45.580;-122.680;2022-07-15T02:17:50;5.85;;;2.15;;
32912;SDS011;19266;45.580;-122.680;2022-07-15T02:20:19;7.12;;;2.40;;
32912;SDS011;19266;45.580;-122.680;2022-07-15T02:22:48;4.83;;;2.10;;
32912;SDS011;19266;45.580;-122.680;2022-07-15T02:25:18;5.40;;;2.12;;
32912;SDS011;19266;45.580;-122.680;2022-07-15T02:27:48;2.98;;;1.90;;
32912;SDS011;19266;45.580;-122.680;2022-07-15T02:30:18;3.25;;;1.90;;
32912;SDS011;19266;45.580;-122.680;2022-07-15T02:32:47;2.33;;;2.00;;
32912;SDS011;19266;45.580;-122.680;2022-07-15T02:35:16;2.52;;;2.10;;
32912;SDS011;19266;45.580;-122.680;2022-07-15T02:37:46;2.20;;;2.00;;
32912;SDS011;19266;45.580;-122.680;2022-07-15T02:40:15;2.42;;;1.87;;
32912;SDS011;19266;45.580;-122.680;2022-07-15T02:42:47;4.28;;;2.10;;
32912;SDS011;19266;45.580;-122.680;2022-07-15T02:45:14;1.82;;;1.70;;
32912;SDS011;19266;45.580;-122.680;2022-07-15T02:47:43;2.00;;;1.90;;
32912;SDS011;19266;45.580;-122.680;2022-07-15T02:50:12;3.10;;;1.98;;
32912;SDS011;19266;45.580;-122.680;2022-07-15T02:52:42;2.67;;;2.10;;
32912;SDS011;19266;45.580;-122.680;2022-07-15T02:55:13;2.90;;;2.05;;
32912;SDS011;19266;45.580;-122.680;2022-07-15T02:57:42;2.60;;;2.02;;
32912;SDS011;19266;45.580;-122.680;2022-07-15T03:00:13;2.45;;;1.98;;
32912;SDS011;19266;45.580;-122.680;2022-07-15T03:02:42;2.22;;;2.12;;
32912;SDS011;19266;45.580;-122.680;2022-07-15T03:05:13;3.33;;;2.20;;
32912;SDS011;19266;45.580;-122.680;2022-07-15T03:07:43;2.98;;;2.40;;
32912;SDS011;19266;45.580;-122.680;2022-07-15T03:10:12;4.45;;;2.30;;
32912;SDS011;19266;45.580;-122.680;2022-07-15T03:12:41;3.27;;;2.35;;
32912;SDS011;19266;45.580;-122.680;2022-07-15T03:15:11;3.27;;;2.30;;
32912;SDS011;19266;45.580;-122.680;2022-07-15T03:17:43;2.45;;;2.05;;
32912;SDS011;19266;45.580;-122.680;2022-07-15T03:20:13;2.72;;;2.20;;
32912;SDS011;19266;45.580;-122.680;2022-07-15T03:22:42;9.15;;;2.52;;
32912;SDS011;19266;45.580;-122.680;2022-07-15T03:25:11;2.55;;;2.30;;
32912;SDS011;19266;45.580;-122.680;2022-07-15T03:27:40;3.35;;;2.22;;
32912;SDS011;19266;45.580;-122.680;2022-07-15T03:30:10;2.70;;;2.27;;
32912;SDS011;19266;45.580;-122.680;2022-07-15T03:32:39;3.17;;;2.50;;
32912;SDS011;19266;45.580;-122.680;2022-07-15T03:35:08;2.37;;;2.17;;
32912;SDS011;19266;45.580;-122.680;2022-07-15T03:37:37;4.28;;;2.47;;
32912;SDS011;19266;45.580;-122.680;2022-07-15T03:40:07;4.90;;;2.25;;
32912;SDS011;19266;45.580;-122.680;2022-07-15T03:42:38;2.50;;;2.15;;
32912;SDS011;19266;45.580;-122.680;2022-07-15T03:45:07;4.08;;;2.40;;
32912;SDS011;19266;45.580;-122.680;2022-07-15T03:47:36;2.52;;;2.33;;
32912;SDS011;19266;45.580;-122.680;2022-07-15T03:50:06;4.67;;;2.25;;
32912;SDS011;19266;45.580;-122.680;2022-07-15T03:52:39;4.37;;;2.12;;
32912;SDS011;19266;45.580;-122.680;2022-07-15T03:55:10;3.80;;;2.45;;
32912;SDS011;19266;45.580;-122.680;2022-07-15T03:57:38;3.17;;;2.62;;
32912;SDS011;19266;45.580;-122.680;2022-07-15T04:00:08;3.25;;;2.33;;
32912;SDS011;19266;45.580;-122.680;2022-07-15T04:02:37;6.20;;;2.87;;
32912;SDS011;19266;45.580;-122.680;2022-07-15T04:05:06;14.38;;;3.00;;
32912;SDS011;19266;45.580;-122.680;2022-07-15T04:07:35;5.67;;;2.85;;
32912;SDS011;19266;45.580;-122.680;2022-07-15T04:10:05;2.98;;;2.58;;
32912;SDS011;19266;45.580;-122.680;2022-07-15T04:12:35;4.87;;;2.80;;
32912;SDS011;19266;45.580;-122.680;2022-07-15T04:15:04;4.03;;;2.60;;
32912;SDS011;19266;45.580;-122.680;2022-07-15T04:17:34;48.60;;;4.10;;
32912;SDS011;19266;45.580;-122.680;2022-07-15T04:20:03;7.85;;;2.80;;
32912;SDS011;19266;45.580;-122.680;2022-07-15T04:22:38;4.50;;;2.80;;
32912;SDS011;19266;45.580;-122.680;2022-07-15T04:25:04;3.22;;;2.60;;
32912;SDS011;19266;45.580;-122.680;2022-07-15T04:27:34;2.52;;;2.20;;
32912;SDS011;19266;45.580;-122.680;2022-07-15T04:30:04;2.52;;;2.35;;
32912;SDS011;19266;45.580;-122.680;2022-07-15T04:32:33;4.95;;;2.47;;
32912;SDS011;19266;45.580;-122.680;2022-07-15T04:35:03;4.95;;;2.40;;
32912;SDS011;19266;45.580;-122.680;2022-07-15T04:37:32;3.27;;;2.37;;
32912;SDS011;19266;45.580;-122.680;2022-07-15T04:40:03;4.97;;;2.40;;
32912;SDS011;19266;45.580;-122.680;2022-07-15T04:42:33;2.52;;;2.33;;
32912;SDS011;19266;45.580;-122.680;2022-07-15T04:45:02;3.05;;;2.20;;
32912;SDS011;19266;45.580;-122.680;2022-07-15T04:47:32;2.55;;;2.35;;
32912;SDS011;19266;45.580;-122.680;2022-07-15T04:50:01;3.08;;;2.30;;
32912;SDS011;19266;45.580;-122.680;2022-07-15T04:52:48;5.28;;;2.58;;
32912;SDS011;19266;45.580;-122.680;2022-07-15T04:55:17;3.62;;;2.40;;
32912;SDS011;19266;45.580;-122.680;2022-07-15T04:57:46;2.98;;;2.37;;
32912;SDS011;19266;45.580;-122.680;2022-07-15T05:00:15;4.35;;;2.52;;
32912;SDS011;19266;45.580;-122.680;2022-07-15T05:02:44;2.83;;;2.50;;
32912;SDS011;19266;45.580;-122.680;2022-07-15T05:05:13;2.72;;;2.50;;
32912;SDS011;19266;45.580;-122.680;2022-07-15T05:07:42;5.58;;;2.50;;
32912;SDS011;19266;45.580;-122.680;2022-07-15T05:10:12;2.47;;;2.27;;
32912;SDS011;19266;45.580;-122.680;2022-07-15T05:12:43;5.92;;;2.55;;
32912;SDS011;19266;45.580;-122.680;2022-07-15T05:15:14;3.02;;;2.50;;
32912;SDS011;19266;45.580;-122.680;2022-07-15T05:17:42;3.65;;;2.60;;
32912;SDS011;19266;45.580;-122.680;2022-07-15T05:20:12;8.30;;;2.83;;
32912;SDS011;19266;45.580;-122.680;2022-07-15T05:22:43;5.67;;;2.50;;
32912;SDS011;19266;45.580;-122.680;2022-07-15T05:25:12;5.00;;;2.47;;
32912;SDS011;19266;45.580;-122.680;2022-07-15T05:27:43;5.75;;;2.62;;
32912;SDS011;19266;45.580;-122.680;2022-07-15T05:30:15;3.02;;;2.55;;
32912;SDS011;19266;45.580;-122.680;2022-07-15T05:32:46;2.92;;;2.60;;
32912;SDS011;19266;45.580;-122.680;2022-07-15T05:35:15;7.35;;;2.70;;
32912;SDS011;19266;45.580;-122.680;2022-07-15T05:37:44;3.67;;;2.60;;
32912;SDS011;19266;45.580;-122.680;2022-07-15T05:40:13;3.15;;;2.50;;
32912;SDS011;19266;45.580;-122.680;2022-07-15T05:42:43;3.62;;;2.42;;
32912;SDS011;19266;45.580;-122.680;2022-07-15T05:45:12;2.83;;;2.45;;
32912;SDS011;19266;45.580;-122.680;2022-07-15T05:47:51;4.08;;;2.45;;
32912;SDS011;19266;45.580;-122.680;2022-07-15T05:50:12;3.35;;;2.37;;
32912;SDS011;19266;45.580;-122.680;2022-07-15T05:52:41;3.83;;;2.80;;
32912;SDS011;19266;45.580;-122.680;2022-07-15T05:55:11;3.47;;;2.60;;
32912;SDS011;19266;45.580;-122.680;2022-07-15T05:57:40;3.90;;;2.65;;
32912;SDS011;19266;45.580;-122.680;2022-07-15T06:00:09;2.60;;;2.40;;
32912;SDS011;19266;45.580;-122.680;2022-07-15T06:02:38;3.65;;;2.60;;
32912;SDS011;19266;45.580;-122.680;2022-07-15T06:05:08;39.92;;;4.50;;
32912;SDS011;19266;45.580;-122.680;2022-07-15T06:07:37;2.90;;;2.60;;
32912;SDS011;19266;45.580;-122.680;2022-07-15T06:10:07;3.60;;;2.67;;
32912;SDS011;19266;45.580;-122.680;2022-07-15T06:12:36;4.33;;;2.72;;
32912;SDS011;19266;45.580;-122.680;2022-07-15T06:15:06;5.12;;;2.52;;
32912;SDS011;19266;45.580;-122.680;2022-07-15T06:17:35;10.58;;;2.90;;
32912;SDS011;19266;45.580;-122.680;2022-07-15T06:20:05;9.43;;;2.90;;
32912;SDS011;19266;45.580;-122.680;2022-07-15T06:22:34;4.00;;;2.90;;
32912;SDS011;19266;45.580;-122.680;2022-07-15T06:25:03;2.60;;;2.40;;
32912;SDS011;19266;45.580;-122.680;2022-07-15T06:27:33;4.62;;;2.72;;
32912;SDS011;19266;45.580;-122.680;2022-07-15T06:30:02;3.85;;;2.70;;
32912;SDS011;19266;45.580;-122.680;2022-07-15T06:32:31;2.98;;;2.62;;
32912;SDS011;19266;45.580;-122.680;2022-07-15T06:35:00;6.83;;;2.70;;
32912;SDS011;19266;45.580;-122.680;2022-07-15T06:37:32;6.78;;;3.10;;
32912;SDS011;19266;45.580;-122.680;2022-07-15T06:40:00;4.12;;;2.70;;
32912;SDS011;19266;45.580;-122.680;2022-07-15T06:42:31;4.00;;;2.52;;
32912;SDS011;19266;45.580;-122.680;2022-07-15T06:45:00;3.90;;;2.80;;
32912;SDS011;19266;45.580;-122.680;2022-07-15T06:47:30;3.50;;;2.70;;
32912;SDS011;19266;45.580;-122.680;2022-07-15T06:50:03;11.75;;;3.25;;
32912;SDS011;19266;45.580;-122.680;2022-07-15T06:52:33;4.28;;;2.90;;
32912;SDS011;19266;45.580;-122.680;2022-07-15T06:55:04;5.22;;;2.98;;
32912;SDS011;19266;45.580;-122.680;2022-07-15T06:57:33;4.62;;;2.62;;
32912;SDS011;19266;45.580;-122.680;2022-07-15T07:00:02;3.42;;;2.85;;
32912;SDS011;19266;45.580;-122.680;2022-07-15T07:02:32;6.45;;;2.50;;
32912;SDS011;19266;45.580;-122.680;2022-07-15T07:05:01;3.08;;;2.83;;
32912;SDS011;19266;45.580;-122.680;2022-07-15T07:07:33;9.45;;;3.20;;
32912;SDS011;19266;45.580;-122.680;2022-07-15T07:10:02;5.42;;;2.70;;
32912;SDS011;19266;45.580;-122.680;2022-07-15T07:12:31;4.15;;;2.75;;
32912;SDS011;19266;45.580;-122.680;2022-07-15T07:15:00;4.10;;;2.80;;
32912;SDS011;19266;45.580;-122.680;2022-07-15T07:17:32;3.77;;;2.80;;
32912;SDS011;19266;45.580;-122.680;2022-07-15T07:20:01;3.70;;;2.90;;
32912;SDS011;19266;45.580;-122.680;2022-07-15T07:22:31;3.20;;;2.90;;
32912;SDS011;19266;45.580;-122.680;2022-07-15T07:25:00;3.95;;;3.00;;
32912;SDS011;19266;45.580;-122.680;2022-07-15T07:27:29;2.83;;;2.62;;
32912;SDS011;19266;45.580;-122.680;2022-07-15T07:29:58;5.75;;;2.98;;
32912;SDS011;19266;45.580;-122.680;2022-07-15T07:32:28;3.22;;;2.55;;
32912;SDS011;19266;45.580;-122.680;2022-07-15T07:34:57;3.08;;;2.83;;
32912;SDS011;19266;45.580;-122.680;2022-07-15T07:37:27;5.92;;;2.90;;
32912;SDS011;19266;45.580;-122.680;2022-07-15T07:39:56;4.53;;;2.98;;
32912;SDS011;19266;45.580;-122.680;2022-07-15T07:42:25;4.65;;;2.90;;
32912;SDS011;19266;45.580;-122.680;2022-07-15T07:44:54;3.27;;;2.92;;
32912;SDS011;19266;45.580;-122.680;2022-07-15T07:47:23;2.83;;;2.58;;
32912;SDS011;19266;45.580;-122.680;2022-07-15T07:49:52;8.68;;;2.95;;
32912;SDS011;19266;45.580;-122.680;2022-07-15T07:52:23;3.12;;;2.80;;
32912;SDS011;19266;45.580;-122.680;2022-07-15T07:54:52;3.58;;;2.70;;
32912;SDS011;19266;45.580;-122.680;2022-07-15T07:57:21;3.83;;;2.70;;
32912;SDS011;19266;45.580;-122.680;2022-07-15T07:59:53;3.10;;;2.80;;
32912;SDS011;19266;45.580;-122.680;2022-07-15T08:02:22;3.70;;;2.98;;
32912;SDS011;19266;45.580;-122.680;2022-07-15T08:04:51;3.02;;;2.80;;
32912;SDS011;19266;45.580;-122.680;2022-07-15T08:07:22;3.27;;;2.98;;
32912;SDS011;19266;45.580;-122.680;2022-07-15T08:09:51;5.72;;;3.08;;
32912;SDS011;19266;45.580;-122.680;2022-07-15T08:12:22;7.15;;;3.02;;
32912;SDS011;19266;45.580;-122.680;2022-07-15T08:14:51;4.53;;;2.70;;
32912;SDS011;19266;45.580;-122.680;2022-07-15T08:17:22;3.47;;;2.90;;
32912;SDS011;19266;45.580;-122.680;2022-07-15T08:19:51;3.67;;;3.08;;
32912;SDS011;19266;45.580;-122.680;2022-07-15T08:22:21;4.30;;;3.02;;
32912;SDS011;19266;45.580;-122.680;2022-07-15T08:24:51;3.95;;;2.87;;
32912;SDS011;19266;45.580;-122.680;2022-07-15T08:27:22;3.65;;;2.92;;
32912;SDS011;19266;45.580;-122.680;2022-07-15T08:29:51;7.92;;;3.08;;
32912;SDS011;19266;45.580;-122.680;2022-07-15T08:32:20;16.60;;;3.87;;
32912;SDS011;19266;45.580;-122.680;2022-07-15T08:34:49;6.42;;;2.87;;
32912;SDS011;19266;45.580;-122.680;2022-07-15T08:37:18;5.65;;;3.30;;
32912;SDS011;19266;45.580;-122.680;2022-07-15T08:39:47;5.97;;;3.00;;
32912;SDS011;19266;45.580;-122.680;2022-07-15T08:42:17;7.58;;;3.02;;
32912;SDS011;19266;45.580;-122.680;2022-07-15T08:44:46;9.65;;;2.98;;
32912;SDS011;19266;45.580;-122.680;2022-07-15T08:47:15;3.22;;;2.92;;
32912;SDS011;19266;45.580;-122.680;2022-07-15T08:49:45;5.58;;;2.83;;
32912;SDS011;19266;45.580;-122.680;2022-07-15T08:52:15;3.60;;;2.80;;
32912;SDS011;19266;45.580;-122.680;2022-07-15T08:54:46;4.08;;;2.95;;
32912;SDS011;19266;45.580;-122.680;2022-07-15T08:57:16;2.92;;;2.70;;
32912;SDS011;19266;45.580;-122.680;2022-07-15T08:59:45;4.25;;;3.00;;
32912;SDS011;19266;45.580;-122.680;2022-07-15T09:02:18;3.77;;;3.00;;
32912;SDS011;19266;45.580;-122.680;2022-07-15T09:07:37;3.37;;;2.95;;
32912;SDS011;19266;45.580;-122.680;2022-07-15T09:10:03;3.47;;;3.10;;
32912;SDS011;19266;45.580;-122.680;2022-07-15T09:12:39;4.03;;;3.00;;
32912;SDS011;19266;45.580;-122.680;2022-07-15T09:15:04;5.42;;;3.10;;
32912;SDS011;19266;45.580;-122.680;2022-07-15T09:17:33;3.72;;;2.98;;
32912;SDS011;19266;45.580;-122.680;2022-07-15T09:20:09;4.55;;;3.15;;
32912;SDS011;19266;45.580;-122.680;2022-07-15T09:22:48;3.72;;;3.27;;
32912;SDS011;19266;45.580;-122.680;2022-07-15T09:25:19;3.47;;;3.17;;
32912;SDS011;19266;45.580;-122.680;2022-07-15T09:27:49;4.50;;;2.85;;
32912;SDS011;19266;45.580;-122.680;2022-07-15T09:30:23;3.55;;;3.20;;
32912;SDS011;19266;45.580;-122.680;2022-07-15T09:33:10;22.58;;;3.72;;
32912;SDS011;19266;45.580;-122.680;2022-07-15T09:36:08;15.13;;;3.50;;
32912;SDS011;19266;45.580;-122.680;2022-07-15T09:38:40;9.95;;;3.10;;
32912;SDS011;19266;45.580;-122.680;2022-07-15T09:41:11;5.58;;;3.00;;
32912;SDS011;19266;45.580;-122.680;2022-07-15T09:43:48;18.52;;;3.83;;
32912;SDS011;19266;45.580;-122.680;2022-07-15T09:46:14;7.60;;;3.20;;
32912;SDS011;19266;45.580;-122.680;2022-07-15T09:48:43;14.35;;;3.60;;
32912;SDS011;19266;45.580;-122.680;2022-07-15T09:51:13;6.20;;;3.25;;
32912;SDS011;19266;45.580;-122.680;2022-07-15T09:53:42;7.90;;;3.22;;
32912;SDS011;19266;45.580;-122.680;2022-07-15T09:56:12;3.72;;;3.12;;
32912;SDS011;19266;45.580;-122.680;2022-07-15T09:58:42;3.20;;;2.90;;
32912;SDS011;19266;45.580;-122.680;2022-07-15T10:01:12;3.90;;;3.00;;
32912;SDS011;19266;45.580;-122.680;2022-07-15T10:03:41;5.50;;;3.00;;
32912;SDS011;19266;45.580;-122.680;2022-07-15T10:06:11;3.90;;;3.10;;
32912;SDS011;19266;45.580;-122.680;2022-07-15T10:08:40;3.80;;;3.08;;
32912;SDS011;19266;45.580;-122.680;2022-07-15T10:11:10;4.53;;;3.08;;
32912;SDS011;19266;45.580;-122.680;2022-07-15T10:16:13;4.28;;;2.92;;
32912;SDS011;19266;45.580;-122.680;2022-07-15T10:18:56;4.10;;;2.98;;
32912;SDS011;19266;45.580;-122.680;2022-07-15T10:21:24;5.03;;;3.10;;
32912;SDS011;19266;45.580;-122.680;2022-07-15T10:28:57;3.10;;;2.80;;
32912;SDS011;19266;45.580;-122.680;2022-07-15T10:31:26;3.22;;;2.92;;
32912;SDS011;19266;45.580;-122.680;2022-07-15T10:39:19;6.90;;;3.02;;
32912;SDS011;19266;45.580;-122.680;2022-07-15T10:41:56;4.35;;;3.20;;
32912;SDS011;19266;45.580;-122.680;2022-07-15T10:44:26;4.62;;;3.47;;
32912;SDS011;19266;45.580;-122.680;2022-07-15T10:47:30;5.03;;;3.50;;
32912;SDS011;19266;45.580;-122.680;2022-07-15T10:49:32;4.65;;;3.40;;
32912;SDS011;19266;45.580;-122.680;2022-07-15T10:52:11;5.12;;;3.55;;
32912;SDS011;19266;45.580;-122.680;2022-07-15T10:54:47;3.45;;;3.15;;
32912;SDS011;19266;45.580;-122.680;2022-07-15T10:57:11;3.35;;;3.02;;
32912;SDS011;19266;45.580;-122.680;2022-07-15T10:59:50;4.20;;;3.10;;
32912;SDS011;19266;45.580;-122.680;2022-07-15T11:02:15;7.87;;;3.30;;
32912;SDS011;19266;45.580;-122.680;2022-07-15T11:04:48;5.55;;;3.10;;
32912;SDS011;19266;45.580;-122.680;2022-07-15T11:09:50;3.58;;;2.90;;
32912;SDS011;19266;45.580;-122.680;2022-07-15T11:12:17;5.35;;;3.20;;
32912;SDS011;19266;45.580;-122.680;2022-07-15T11:14:47;4.85;;;2.87;;
32912;SDS011;19266;45.580;-122.680;2022-07-15T11:17:18;3.50;;;3.15;;
32912;SDS011;19266;45.580;-122.680;2022-07-15T11:19:48;2.72;;;2.50;;
32912;SDS011;19266;45.580;-122.680;2022-07-15T11:22:18;4.17;;;2.90;;
32912;SDS011;19266;45.580;-122.680;2022-07-15T11:24:49;5.37;;;3.50;;
32912;SDS011;19266;45.580;-122.680;2022-07-15T11:27:19;3.55;;;3.08;;
32912;SDS011;19266;45.580;-122.680;2022-07-15T11:32:20;4.97;;;2.90;;
32912;SDS011;19266;45.580;-122.680;2022-07-15T11:34:50;3.42;;;2.77;;
32912;SDS011;19266;45.580;-122.680;2022-07-15T11:37:30;3.77;;;2.90;;
32912;SDS011;19266;45.580;-122.680;2022-07-15T11:40:07;3.85;;;3.15;;
32912;SDS011;19266;45.580;-122.680;2022-07-15T11:42:36;3.77;;;3.05;;
32912;SDS011;19266;45.580;-122.680;2022-07-15T11:45:33;4.72;;;2.98;;
32912;SDS011;19266;45.580;-122.680;2022-07-15T11:48:03;3.90;;;2.80;;
32912;SDS011;19266;45.580;-122.680;2022-07-15T11:50:37;6.12;;;3.10;;
32912;SDS011;19266;45.580;-122.680;2022-07-15T11:53:16;3.75;;;2.95;;
32912;SDS011;19266;45.580;-122.680;2022-07-15T11:55:52;4.22;;;2.95;;
32912;SDS011;19266;45.580;-122.680;2022-07-15T11:58:25;5.50;;;3.00;;
32912;SDS011;19266;45.580;-122.680;2022-07-15T12:00:56;12.60;;;3.50;;
32912;SDS011;19266;45.580;-122.680;2022-07-15T12:03:30;3.52;;;3.05;;
32912;SDS011;19266;45.580;-122.680;2022-07-15T12:06:09;8.95;;;3.30;;
32912;SDS011;19266;45.580;-122.680;2022-07-15T12:08:35;3.40;;;3.10;;
32912;SDS011;19266;45.580;-122.680;2022-07-15T12:11:13;3.20;;;2.90;;
32912;SDS011;19266;45.580;-122.680;2022-07-15T12:13:41;3.33;;;3.00;;
32912;SDS011;19266;45.580;-122.680;2022-07-15T12:16:11;5.65;;;2.95;;
32912;SDS011;19266;45.580;-122.680;2022-07-15T12:18:40;4.00;;;2.90;;
32912;SDS011;19266;45.580;-122.680;2022-07-15T12:21:10;4.47;;;2.92;;
32912;SDS011;19266;45.580;-122.680;2022-07-15T12:23:39;5.12;;;3.20;;
32912;SDS011;19266;45.580;-122.680;2022-07-15T12:26:11;5.72;;;3.10;;
32912;SDS011;19266;45.580;-122.680;2022-07-15T12:28:40;4.83;;;3.00;;
32912;SDS011;19266;45.580;-122.680;2022-07-15T12:31:09;6.05;;;3.52;;
32912;SDS011;19266;45.580;-122.680;2022-07-15T12:33:40;11.45;;;3.40;;
32912;SDS011;19266;45.580;-122.680;2022-07-15T12:36:17;6.78;;;3.20;;
32912;SDS011;19266;45.580;-122.680;2022-07-15T12:41:35;6.87;;;3.52;;
32912;SDS011;19266;45.580;-122.680;2022-07-15T12:44:04;6.28;;;3.05;;
32912;SDS011;19266;45.580;-122.680;2022-07-15T12:46:52;7.08;;;3.40;;
32912;SDS011;19266;45.580;-122.680;2022-07-15T12:52:14;4.90;;;3.10;;
32912;SDS011;19266;45.580;-122.680;2022-07-15T12:54:44;7.42;;;3.00;;
32912;SDS011;19266;45.580;-122.680;2022-07-15T12:59:52;4.20;;;3.45;;
32912;SDS011;19266;45.580;-122.680;2022-07-15T13:02:21;3.80;;;3.00;;
32912;SDS011;19266;45.580;-122.680;2022-07-15T13:04:52;3.45;;;3.10;;
32912;SDS011;19266;45.580;-122.680;2022-07-15T13:07:20;3.70;;;3.25;;
32912;SDS011;19266;45.580;-122.680;2022-07-15T13:09:51;3.10;;;2.80;;
32912;SDS011;19266;45.580;-122.680;2022-07-15T13:12:20;4.92;;;3.30;;
32912;SDS011;19266;45.580;-122.680;2022-07-15T13:14:50;3.80;;;3.10;;
32912;SDS011;19266;45.580;-122.680;2022-07-15T13:17:19;3.35;;;3.02;;
32912;SDS011;19266;45.580;-122.680;2022-07-15T13:19:48;3.72;;;3.15;;
32912;SDS011;19266;45.580;-122.680;2022-07-15T13:22:17;4.08;;;3.20;;
32912;SDS011;19266;45.580;-122.680;2022-07-15T13:24:48;6.35;;;3.37;;
32912;SDS011;19266;45.580;-122.680;2022-07-15T13:27:17;6.58;;;3.58;;
32912;SDS011;19266;45.580;-122.680;2022-07-15T13:29:46;5.25;;;3.70;;
32912;SDS011;19266;45.580;-122.680;2022-07-15T13:32:15;7.03;;;3.55;;
32912;SDS011;19266;45.580;-122.680;2022-07-15T13:34:44;7.03;;;3.77;;
32912;SDS011;19266;45.580;-122.680;2022-07-15T13:37:14;6.65;;;3.33;;
32912;SDS011;19266;45.580;-122.680;2022-07-15T13:39:43;6.55;;;3.42;;
32912;SDS011;19266;45.580;-122.680;2022-07-15T13:42:13;12.82;;;3.90;;
32912;SDS011;19266;45.580;-122.680;2022-07-15T13:44:42;5.20;;;3.37;;
32912;SDS011;19266;45.580;-122.680;2022-07-15T13:47:11;5.25;;;3.60;;
32912;SDS011;19266;45.580;-122.680;2022-07-15T13:49:42;3.80;;;3.40;;
32912;SDS011;19266;45.580;-122.680;2022-07-15T13:52:27;4.53;;;3.30;;
32912;SDS011;19266;45.580;-122.680;2022-07-15T13:54:57;4.37;;;3.25;;
32912;SDS011;19266;45.580;-122.680;2022-07-15T13:57:26;3.52;;;3.20;;
32912;SDS011;19266;45.580;-122.680;2022-07-15T13:59:57;3.50;;;3.20;;
32912;SDS011;19266;45.580;-122.680;2022-07-15T14:02:25;4.35;;;3.20;;
32912;SDS011;19266;45.580;-122.680;2022-07-15T14:04:54;4.50;;;2.90;;
32912;SDS011;19266;45.580;-122.680;2022-07-15T14:07:23;4.90;;;3.40;;
32912;SDS011;19266;45.580;-122.680;2022-07-15T14:09:53;4.58;;;2.92;;
32912;SDS011;19266;45.580;-122.680;2022-07-15T14:12:22;5.83;;;3.20;;
32912;SDS011;19266;45.580;-122.680;2022-07-15T14:14:51;3.52;;;3.00;;
32912;SDS011;19266;45.580;-122.680;2022-07-15T14:17:22;4.37;;;2.83;;
32912;SDS011;19266;45.580;-122.680;2022-07-15T14:19:51;3.87;;;2.90;;
32912;SDS011;19266;45.580;-122.680;2022-07-15T14:22:22;4.70;;;3.00;;
32912;SDS011;19266;45.580;-122.680;2022-07-15T14:24:52;3.40;;;3.10;;
32912;SDS011;19266;45.580;-122.680;2022-07-15T14:27:22;3.12;;;2.83;;
32912;SDS011;19266;45.580;-122.680;2022-07-15T14:29:51;3.65;;;3.10;;
32912;SDS011;19266;45.580;-122.680;2022-07-15T14:32:21;4.45;;;2.80;;
32912;SDS011;19266;45.580;-122.680;2022-07-15T14:34:50;3.33;;;2.80;;
32912;SDS011;19266;45.580;-122.680;2022-07-15T14:37:19;19.90;;;3.62;;
32912;SDS011;19266;45.580;-122.680;2022-07-15T14:39:48;5.10;;;3.02;;
32912;SDS011;19266;45.580;-122.680;2022-07-15T14:42:19;4.65;;;3.10;;
32912;SDS011;19266;45.580;-122.680;2022-07-15T14:44:48;5.72;;;3.02;;
32912;SDS011;19266;45.580;-122.680;2022-07-15T14:47:19;3.77;;;3.30;;
32912;SDS011;19266;45.580;-122.680;2022-07-15T14:49:47;4.40;;;3.10;;
32912;SDS011;19266;45.580;-122.680;2022-07-15T14:52:18;5.62;;;3.12;;
32912;SDS011;19266;45.580;-122.680;2022-07-15T14:54:47;4.65;;;3.40;;